sensor_id;sensor_type;location;lat;lon;timestamp;P1;durP1;ratioP1;P2;durP2;ratioP2
67595;SDS011;54410;48.694;8.934;2023-12-20T00:01:26;3.63;;;3.33;;
67595;SDS011;54410;48.694;8.934;2023-12-20T00:03:52;3.50;;;3.30;;
67595;SDS011;54410;48.694;8.934;2023-12-20T00:06:18;3.03;;;2.83;;
67595;SDS011;54410;48.694;8.934;2023-12-20T00:08:44;3.17;;;2.97;;
67595;SDS011;54410;48.694;8.934;2023-12-20T00:11:10;3.43;;;3.20;;
67595;SDS011;54410;48.694;8.934;2023-12-20T00:13:36;3.20;;;3.00;;
67595;SDS011;54410;48.694;8.934;2023-12-20T00:16:02;3.57;;;3.37;;
67595;SDS011;54410;48.694;8.934;2023-12-20T00:18:28;2.80;;;2.60;;
67595;SDS011;54410;48.694;8.934;2023-12-20T00:20:54;2.93;;;2.80;;
67595;SDS011;54410;48.694;8.934;2023-12-20T00:23:20;2.70;;;2.50;;
67595;SDS011;54410;48.694;8.934;2023-12-20T00:25:48;3.20;;;2.90;;
67595;SDS011;54410;48.694;8.934;2023-12-20T00:28:13;3.27;;;3.07;;
67595;SDS011;54410;48.694;8.934;2023-12-20T00:30:39;3.47;;;3.17;;
67595;SDS011;54410;48.694;8.934;2023-12-20T00:33:05;2.37;;;2.27;;
67595;SDS011;54410;48.694;8.934;2023-12-20T00:35:31;2.90;;;2.70;;
67595;SDS011;54410;48.694;8.934;2023-12-20T00:37:57;2.83;;;2.73;;
67595;SDS011;54410;48.694;8.934;2023-12-20T00:40:23;2.90;;;2.70;;
67595;SDS011;54410;48.694;8.934;2023-12-20T00:42:49;2.97;;;2.77;;
67595;SDS011;54410;48.694;8.934;2023-12-20T00:45:15;2.90;;;2.70;;
67595;SDS011;54410;48.694;8.934;2023-12-20T00:47:41;2.30;;;2.20;;
67595;SDS011;54410;48.694;8.934;2023-12-20T00:50:07;3.30;;;3.10;;
67595;SDS011;54410;48.694;8.934;2023-12-20T00:52:34;2.60;;;2.50;;
67595;SDS011;54410;48.694;8.934;2023-12-20T00:54:59;3.10;;;2.90;;
67595;SDS011;54410;48.694;8.934;2023-12-20T00:57:25;2.60;;;2.40;;
67595;SDS011;54410;48.694;8.934;2023-12-20T00:59:51;3.40;;;3.20;;
67595;SDS011;54410;48.694;8.934;2023-12-20T01:02:17;2.60;;;2.47;;
67595;SDS011;54410;48.694;8.934;2023-12-20T01:04:44;3.00;;;2.80;;
67595;SDS011;54410;48.694;8.934;2023-12-20T01:07:09;3.00;;;2.80;;
67595;SDS011;54410;48.694;8.934;2023-12-20T01:09:35;2.90;;;2.70;;
67595;SDS011;54410;48.694;8.934;2023-12-20T01:12:01;3.27;;;2.67;;
67595;SDS011;54410;48.694;8.934;2023-12-20T01:14:27;3.33;;;3.13;;
67595;SDS011;54410;48.694;8.934;2023-12-20T01:16:53;3.40;;;3.10;;
67595;SDS011;54410;48.694;8.934;2023-12-20T01:19:19;3.07;;;2.87;;
67595;SDS011;54410;48.694;8.934;2023-12-20T01:21:46;2.67;;;2.57;;
67595;SDS011;54410;48.694;8.934;2023-12-20T01:24:12;2.73;;;2.53;;
67595;SDS011;54410;48.694;8.934;2023-12-20T01:26:38;2.37;;;2.27;;
67595;SDS011;54410;48.694;8.934;2023-12-20T01:29:04;3.13;;;2.93;;
67595;SDS011;54410;48.694;8.934;2023-12-20T01:31:30;2.83;;;2.73;;
67595;SDS011;54410;48.694;8.934;2023-12-20T01:33:56;2.77;;;2.57;;
67595;SDS011;54410;48.694;8.934;2023-12-20T01:36:22;2.53;;;2.40;;
67595;SDS011;54410;48.694;8.934;2023-12-20T01:38:47;2.63;;;2.50;;
67595;SDS011;54410;48.694;8.934;2023-12-20T01:41:13;2.30;;;2.20;;
67595;SDS011;54410;48.694;8.934;2023-12-20T01:43:39;2.87;;;2.63;;
67595;SDS011;54410;48.694;8.934;2023-12-20T01:46:05;2.17;;;2.07;;
67595;SDS011;54410;48.694;8.934;2023-12-20T01:48:31;2.10;;;2.00;;
67595;SDS011;54410;48.694;8.934;2023-12-20T01:50:57;2.10;;;2.00;;
67595;SDS011;54410;48.694;8.934;2023-12-20T01:53:24;2.03;;;1.93;;
67595;SDS011;54410;48.694;8.934;2023-12-20T01:55:51;2.20;;;2.10;;
67595;SDS011;54410;48.694;8.934;2023-12-20T01:58:17;2.00;;;1.90;;
67595;SDS011;54410;48.694;8.934;2023-12-20T02:00:43;1.90;;;1.80;;
67595;SDS011;54410;48.694;8.934;2023-12-20T02:03:09;1.97;;;1.97;;
67595;SDS011;54410;48.694;8.934;2023-12-20T02:05:36;2.10;;;1.90;;
67595;SDS011;54410;48.694;8.934;2023-12-20T02:08:02;2.10;;;2.00;;
67595;SDS011;54410;48.694;8.934;2023-12-20T02:10:28;2.30;;;2.20;;
67595;SDS011;54410;48.694;8.934;2023-12-20T02:12:54;1.53;;;1.50;;
67595;SDS011;54410;48.694;8.934;2023-12-20T02:15:20;1.60;;;1.60;;
67595;SDS011;54410;48.694;8.934;2023-12-20T02:17:46;2.10;;;2.00;;
67595;SDS011;54410;48.694;8.934;2023-12-20T02:20:13;1.80;;;1.70;;
67595;SDS011;54410;48.694;8.934;2023-12-20T02:22:39;1.70;;;1.70;;
67595;SDS011;54410;48.694;8.934;2023-12-20T02:25:05;1.40;;;1.40;;
67595;SDS011;54410;48.694;8.934;2023-12-20T02:27:31;1.90;;;1.80;;
67595;SDS011;54410;48.694;8.934;2023-12-20T02:29:57;1.80;;;1.80;;
67595;SDS011;54410;48.694;8.934;2023-12-20T02:32:24;1.60;;;1.60;;
67595;SDS011;54410;48.694;8.934;2023-12-20T02:34:53;1.50;;;1.50;;
67595;SDS011;54410;48.694;8.934;2023-12-20T02:37:19;1.90;;;1.90;;
67595;SDS011;54410;48.694;8.934;2023-12-20T02:39:45;1.50;;;1.50;;
67595;SDS011;54410;48.694;8.934;2023-12-20T02:42:11;1.80;;;1.70;;
67595;SDS011;54410;48.694;8.934;2023-12-20T02:44:36;1.43;;;1.43;;
67595;SDS011;54410;48.694;8.934;2023-12-20T02:47:03;2.00;;;1.90;;
67595;SDS011;54410;48.694;8.934;2023-12-20T02:49:29;1.50;;;1.50;;
67595;SDS011;54410;48.694;8.934;2023-12-20T02:51:54;2.00;;;1.90;;
67595;SDS011;54410;48.694;8.934;2023-12-20T02:54:20;1.30;;;1.30;;
67595;SDS011;54410;48.694;8.934;2023-12-20T02:56:46;1.70;;;1.70;;
67595;SDS011;54410;48.694;8.934;2023-12-20T02:59:12;1.50;;;1.50;;
67595;SDS011;54410;48.694;8.934;2023-12-20T03:01:45;1.70;;;1.70;;
67595;SDS011;54410;48.694;8.934;2023-12-20T03:04:11;1.50;;;1.50;;
67595;SDS011;54410;48.694;8.934;2023-12-20T03:06:37;1.50;;;1.40;;
67595;SDS011;54410;48.694;8.934;2023-12-20T03:09:03;1.80;;;1.80;;
67595;SDS011;54410;48.694;8.934;2023-12-20T03:11:29;1.60;;;1.60;;
67595;SDS011;54410;48.694;8.934;2023-12-20T03:13:55;1.63;;;1.63;;
67595;SDS011;54410;48.694;8.934;2023-12-20T03:16:21;1.87;;;1.80;;
67595;SDS011;54410;48.694;8.934;2023-12-20T03:18:47;1.57;;;1.57;;
67595;SDS011;54410;48.694;8.934;2023-12-20T03:21:13;1.80;;;1.80;;
67595;SDS011;54410;48.694;8.934;2023-12-20T03:23:39;1.70;;;1.70;;
67595;SDS011;54410;48.694;8.934;2023-12-20T03:26:08;1.70;;;1.70;;
67595;SDS011;54410;48.694;8.934;2023-12-20T03:28:34;1.40;;;1.40;;
67595;SDS011;54410;48.694;8.934;2023-12-20T03:31:01;1.70;;;1.70;;
67595;SDS011;54410;48.694;8.934;2023-12-20T03:33:27;1.40;;;1.40;;
67595;SDS011;54410;48.694;8.934;2023-12-20T03:35:53;1.60;;;1.60;;
67595;SDS011;54410;48.694;8.934;2023-12-20T03:38:20;2.00;;;1.90;;
67595;SDS011;54410;48.694;8.934;2023-12-20T03:40:46;1.70;;;1.70;;
67595;SDS011;54410;48.694;8.934;2023-12-20T03:43:12;1.63;;;1.63;;
67595;SDS011;54410;48.694;8.934;2023-12-20T03:45:38;1.60;;;1.60;;
67595;SDS011;54410;48.694;8.934;2023-12-20T03:48:04;1.70;;;1.70;;
67595;SDS011;54410;48.694;8.934;2023-12-20T03:50:30;1.53;;;1.53;;
67595;SDS011;54410;48.694;8.934;2023-12-20T03:52:56;1.60;;;1.60;;
67595;SDS011;54410;48.694;8.934;2023-12-20T03:55:22;1.73;;;1.73;;
67595;SDS011;54410;48.694;8.934;2023-12-20T03:57:48;1.40;;;1.40;;
67595;SDS011;54410;48.694;8.934;2023-12-20T04:00:14;1.60;;;1.60;;
67595;SDS011;54410;48.694;8.934;2023-12-20T04:02:41;1.40;;;1.40;;
67595;SDS011;54410;48.694;8.934;2023-12-20T04:05:07;1.60;;;1.60;;
67595;SDS011;54410;48.694;8.934;2023-12-20T04:07:33;1.50;;;1.50;;
67595;SDS011;54410;48.694;8.934;2023-12-20T04:09:59;1.60;;;1.50;;
67595;SDS011;54410;48.694;8.934;2023-12-20T04:12:27;1.60;;;1.60;;
67595;SDS011;54410;48.694;8.934;2023-12-20T04:14:53;1.80;;;1.80;;
67595;SDS011;54410;48.694;8.934;2023-12-20T04:17:20;1.60;;;1.60;;
67595;SDS011;54410;48.694;8.934;2023-12-20T04:19:47;1.50;;;1.50;;
67595;SDS011;54410;48.694;8.934;2023-12-20T04:22:13;2.00;;;1.93;;
67595;SDS011;54410;48.694;8.934;2023-12-20T04:24:39;1.70;;;1.70;;
67595;SDS011;54410;48.694;8.934;2023-12-20T04:27:07;1.80;;;1.80;;
67595;SDS011;54410;48.694;8.934;2023-12-20T04:29:33;1.60;;;1.60;;
67595;SDS011;54410;48.694;8.934;2023-12-20T04:31:58;1.70;;;1.70;;
67595;SDS011;54410;48.694;8.934;2023-12-20T04:34:25;1.70;;;1.70;;
67595;SDS011;54410;48.694;8.934;2023-12-20T04:36:51;1.90;;;1.80;;
67595;SDS011;54410;48.694;8.934;2023-12-20T04:39:17;1.60;;;1.60;;
67595;SDS011;54410;48.694;8.934;2023-12-20T04:41:43;1.80;;;1.80;;
67595;SDS011;54410;48.694;8.934;2023-12-20T04:44:09;1.70;;;1.70;;
67595;SDS011;54410;48.694;8.934;2023-12-20T04:46:35;2.00;;;1.90;;
67595;SDS011;54410;48.694;8.934;2023-12-20T04:49:01;1.70;;;1.70;;
67595;SDS011;54410;48.694;8.934;2023-12-20T04:51:27;1.67;;;1.67;;
67595;SDS011;54410;48.694;8.934;2023-12-20T04:53:53;1.50;;;1.50;;
67595;SDS011;54410;48.694;8.934;2023-12-20T04:56:19;1.47;;;1.47;;
67595;SDS011;54410;48.694;8.934;2023-12-20T04:58:45;2.00;;;2.00;;
67595;SDS011;54410;48.694;8.934;2023-12-20T05:01:12;2.00;;;1.90;;
67595;SDS011;54410;48.694;8.934;2023-12-20T05:03:38;1.87;;;1.87;;
67595;SDS011;54410;48.694;8.934;2023-12-20T05:06:04;2.30;;;2.20;;
67595;SDS011;54410;48.694;8.934;2023-12-20T05:08:30;1.80;;;1.80;;
67595;SDS011;54410;48.694;8.934;2023-12-20T05:10:56;1.87;;;1.73;;
67595;SDS011;54410;48.694;8.934;2023-12-20T05:13:22;1.60;;;1.60;;
67595;SDS011;54410;48.694;8.934;2023-12-20T05:15:48;1.77;;;1.70;;
67595;SDS011;54410;48.694;8.934;2023-12-20T05:18:14;1.83;;;1.83;;
67595;SDS011;54410;48.694;8.934;2023-12-20T05:20:40;2.20;;;2.00;;
67595;SDS011;54410;48.694;8.934;2023-12-20T05:23:06;1.90;;;1.80;;
67595;SDS011;54410;48.694;8.934;2023-12-20T05:25:32;2.10;;;2.00;;
67595;SDS011;54410;48.694;8.934;2023-12-20T05:27:58;1.77;;;1.70;;
67595;SDS011;54410;48.694;8.934;2023-12-20T05:30:24;1.60;;;1.60;;
67595;SDS011;54410;48.694;8.934;2023-12-20T05:32:50;2.00;;;1.90;;
67595;SDS011;54410;48.694;8.934;2023-12-20T05:35:16;1.70;;;1.70;;
67595;SDS011;54410;48.694;8.934;2023-12-20T05:37:42;1.87;;;1.80;;
67595;SDS011;54410;48.694;8.934;2023-12-20T05:40:08;2.10;;;2.00;;
67595;SDS011;54410;48.694;8.934;2023-12-20T05:42:37;1.70;;;1.70;;
67595;SDS011;54410;48.694;8.934;2023-12-20T05:45:03;1.63;;;1.63;;
67595;SDS011;54410;48.694;8.934;2023-12-20T05:47:29;1.67;;;1.63;;
67595;SDS011;54410;48.694;8.934;2023-12-20T05:49:54;2.00;;;1.90;;
67595;SDS011;54410;48.694;8.934;2023-12-20T05:52:20;1.80;;;1.80;;
67595;SDS011;54410;48.694;8.934;2023-12-20T05:54:47;1.70;;;1.70;;
67595;SDS011;54410;48.694;8.934;2023-12-20T05:57:13;1.73;;;1.73;;
67595;SDS011;54410;48.694;8.934;2023-12-20T05:59:39;1.90;;;1.77;;
67595;SDS011;54410;48.694;8.934;2023-12-20T06:02:05;1.80;;;1.80;;
67595;SDS011;54410;48.694;8.934;2023-12-20T06:04:30;1.70;;;1.60;;
67595;SDS011;54410;48.694;8.934;2023-12-20T06:06:56;2.60;;;2.40;;
67595;SDS011;54410;48.694;8.934;2023-12-20T06:09:22;2.23;;;2.13;;
67595;SDS011;54410;48.694;8.934;2023-12-20T06:11:49;2.60;;;2.50;;
67595;SDS011;54410;48.694;8.934;2023-12-20T06:14:16;2.10;;;2.00;;
67595;SDS011;54410;48.694;8.934;2023-12-20T06:16:41;2.20;;;2.10;;
67595;SDS011;54410;48.694;8.934;2023-12-20T06:19:07;2.50;;;2.40;;
67595;SDS011;54410;48.694;8.934;2023-12-20T06:21:33;2.83;;;2.63;;
67595;SDS011;54410;48.694;8.934;2023-12-20T06:23:59;2.57;;;2.40;;
67595;SDS011;54410;48.694;8.934;2023-12-20T06:26:25;2.30;;;2.20;;
67595;SDS011;54410;48.694;8.934;2023-12-20T06:28:51;1.80;;;1.80;;
67595;SDS011;54410;48.694;8.934;2023-12-20T06:31:17;2.50;;;2.40;;
67595;SDS011;54410;48.694;8.934;2023-12-20T06:33:43;2.70;;;2.50;;
67595;SDS011;54410;48.694;8.934;2023-12-20T06:36:12;3.53;;;2.03;;
67595;SDS011;54410;48.694;8.934;2023-12-20T06:38:38;2.20;;;2.10;;
67595;SDS011;54410;48.694;8.934;2023-12-20T06:41:04;2.03;;;1.93;;
67595;SDS011;54410;48.694;8.934;2023-12-20T06:43:30;1.97;;;1.87;;
67595;SDS011;54410;48.694;8.934;2023-12-20T06:45:56;2.20;;;2.00;;
67595;SDS011;54410;48.694;8.934;2023-12-20T06:48:22;2.30;;;2.20;;
67595;SDS011;54410;48.694;8.934;2023-12-20T06:50:48;2.10;;;2.00;;
67595;SDS011;54410;48.694;8.934;2023-12-20T06:53:14;2.30;;;2.20;;
67595;SDS011;54410;48.694;8.934;2023-12-20T06:55:40;2.20;;;2.10;;
67595;SDS011;54410;48.694;8.934;2023-12-20T06:58:06;2.00;;;1.90;;
67595;SDS011;54410;48.694;8.934;2023-12-20T07:00:32;1.80;;;1.70;;
67595;SDS011;54410;48.694;8.934;2023-12-20T07:02:58;1.80;;;1.80;;
67595;SDS011;54410;48.694;8.934;2023-12-20T07:05:24;2.30;;;2.20;;
67595;SDS011;54410;48.694;8.934;2023-12-20T07:07:51;1.87;;;1.80;;
67595;SDS011;54410;48.694;8.934;2023-12-20T07:10:17;1.50;;;1.50;;
67595;SDS011;54410;48.694;8.934;2023-12-20T07:12:42;1.60;;;1.60;;
67595;SDS011;54410;48.694;8.934;2023-12-20T07:15:09;2.10;;;2.00;;
67595;SDS011;54410;48.694;8.934;2023-12-20T07:17:35;2.10;;;1.87;;
67595;SDS011;54410;48.694;8.934;2023-12-20T07:20:01;2.30;;;2.20;;
67595;SDS011;54410;48.694;8.934;2023-12-20T07:22:31;2.33;;;2.23;;
67595;SDS011;54410;48.694;8.934;2023-12-20T07:24:58;2.40;;;2.30;;
67595;SDS011;54410;48.694;8.934;2023-12-20T07:27:24;2.37;;;2.27;;
67595;SDS011;54410;48.694;8.934;2023-12-20T07:29:49;2.87;;;2.67;;
67595;SDS011;54410;48.694;8.934;2023-12-20T07:32:15;4.33;;;3.93;;
67595;SDS011;54410;48.694;8.934;2023-12-20T07:34:41;3.30;;;3.10;;
67595;SDS011;54410;48.694;8.934;2023-12-20T07:37:07;3.97;;;3.57;;
67595;SDS011;54410;48.694;8.934;2023-12-20T07:39:35;4.60;;;4.27;;
67595;SDS011;54410;48.694;8.934;2023-12-20T07:42:01;3.33;;;3.13;;
67595;SDS011;54410;48.694;8.934;2023-12-20T07:44:26;4.40;;;4.00;;
67595;SDS011;54410;48.694;8.934;2023-12-20T07:46:52;5.30;;;3.60;;
67595;SDS011;54410;48.694;8.934;2023-12-20T07:49:18;4.40;;;4.00;;
67595;SDS011;54410;48.694;8.934;2023-12-20T07:51:44;5.87;;;4.40;;
67595;SDS011;54410;48.694;8.934;2023-12-20T07:54:10;4.93;;;4.27;;
67595;SDS011;54410;48.694;8.934;2023-12-20T07:56:36;3.77;;;3.47;;
67595;SDS011;54410;48.694;8.934;2023-12-20T07:59:01;3.73;;;3.43;;
67595;SDS011;54410;48.694;8.934;2023-12-20T08:01:27;4.30;;;3.90;;
67595;SDS011;54410;48.694;8.934;2023-12-20T08:03:53;4.30;;;3.87;;
67595;SDS011;54410;48.694;8.934;2023-12-20T08:06:21;4.00;;;3.67;;
67595;SDS011;54410;48.694;8.934;2023-12-20T08:08:46;3.57;;;3.37;;
67595;SDS011;54410;48.694;8.934;2023-12-20T08:11:12;3.40;;;3.20;;
67595;SDS011;54410;48.694;8.934;2023-12-20T08:13:37;3.73;;;3.43;;
67595;SDS011;54410;48.694;8.934;2023-12-20T08:16:03;3.50;;;3.30;;
67595;SDS011;54410;48.694;8.934;2023-12-20T08:18:29;3.77;;;3.47;;
67595;SDS011;54410;48.694;8.934;2023-12-20T08:20:55;3.37;;;3.17;;
67595;SDS011;54410;48.694;8.934;2023-12-20T08:23:20;3.73;;;3.50;;
67595;SDS011;54410;48.694;8.934;2023-12-20T08:25:46;3.80;;;3.50;;
67595;SDS011;54410;48.694;8.934;2023-12-20T08:28:13;2.67;;;2.57;;
67595;SDS011;54410;48.694;8.934;2023-12-20T08:30:38;3.80;;;3.40;;
67595;SDS011;54410;48.694;8.934;2023-12-20T08:33:05;3.00;;;2.80;;
67595;SDS011;54410;48.694;8.934;2023-12-20T08:35:36;3.67;;;3.37;;
67595;SDS011;54410;48.694;8.934;2023-12-20T08:38:01;3.70;;;3.13;;
67595;SDS011;54410;48.694;8.934;2023-12-20T08:40:29;3.70;;;3.40;;
67595;SDS011;54410;48.694;8.934;2023-12-20T08:42:55;3.60;;;3.30;;
67595;SDS011;54410;48.694;8.934;2023-12-20T08:45:21;3.83;;;3.53;;
67595;SDS011;54410;48.694;8.934;2023-12-20T08:47:47;3.60;;;3.30;;
67595;SDS011;54410;48.694;8.934;2023-12-20T08:50:13;3.37;;;3.17;;
67595;SDS011;54410;48.694;8.934;2023-12-20T08:52:40;5.10;;;3.30;;
67595;SDS011;54410;48.694;8.934;2023-12-20T08:55:06;3.53;;;3.23;;
67595;SDS011;54410;48.694;8.934;2023-12-20T08:57:32;3.70;;;3.40;;
67595;SDS011;54410;48.694;8.934;2023-12-20T08:59:58;4.27;;;3.37;;
67595;SDS011;54410;48.694;8.934;2023-12-20T09:02:24;3.47;;;3.20;;
67595;SDS011;54410;48.694;8.934;2023-12-20T09:04:50;3.50;;;3.30;;
67595;SDS011;54410;48.694;8.934;2023-12-20T09:07:25;3.93;;;3.40;;
67595;SDS011;54410;48.694;8.934;2023-12-20T09:09:52;4.60;;;3.53;;
67595;SDS011;54410;48.694;8.934;2023-12-20T09:12:19;8.17;;;4.93;;
67595;SDS011;54410;48.694;8.934;2023-12-20T09:14:45;5.20;;;3.50;;
67595;SDS011;54410;48.694;8.934;2023-12-20T09:17:12;3.80;;;3.37;;
67595;SDS011;54410;48.694;8.934;2023-12-20T09:19:38;3.40;;;3.10;;
67595;SDS011;54410;48.694;8.934;2023-12-20T09:22:04;2.70;;;2.60;;
67595;SDS011;54410;48.694;8.934;2023-12-20T09:24:30;2.57;;;2.37;;
67595;SDS011;54410;48.694;8.934;2023-12-20T09:26:56;2.43;;;2.23;;
67595;SDS011;54410;48.694;8.934;2023-12-20T09:29:22;3.03;;;2.00;;
67595;SDS011;54410;48.694;8.934;2023-12-20T09:31:48;2.33;;;2.07;;
67595;SDS011;54410;48.694;8.934;2023-12-20T09:34:15;3.93;;;2.20;;
67595;SDS011;54410;48.694;8.934;2023-12-20T09:36:41;4.43;;;2.13;;
67595;SDS011;54410;48.694;8.934;2023-12-20T09:39:11;3.10;;;2.30;;
67595;SDS011;54410;48.694;8.934;2023-12-20T09:41:38;3.00;;;2.20;;
67595;SDS011;54410;48.694;8.934;2023-12-20T09:44:08;2.53;;;2.20;;
67595;SDS011;54410;48.694;8.934;2023-12-20T09:46:38;3.40;;;2.57;;
67595;SDS011;54410;48.694;8.934;2023-12-20T09:49:08;3.13;;;2.77;;
67595;SDS011;54410;48.694;8.934;2023-12-20T09:51:34;2.50;;;2.30;;
67595;SDS011;54410;48.694;8.934;2023-12-20T09:54:00;3.30;;;2.10;;
67595;SDS011;54410;48.694;8.934;2023-12-20T09:56:28;2.40;;;2.30;;
67595;SDS011;54410;48.694;8.934;2023-12-20T09:58:54;2.73;;;2.30;;
67595;SDS011;54410;48.694;8.934;2023-12-20T10:01:20;5.50;;;2.20;;
67595;SDS011;54410;48.694;8.934;2023-12-20T10:03:46;3.33;;;2.40;;
67595;SDS011;54410;48.694;8.934;2023-12-20T10:06:12;4.37;;;3.03;;
67595;SDS011;54410;48.694;8.934;2023-12-20T10:08:38;3.03;;;2.30;;
67595;SDS011;54410;48.694;8.934;2023-12-20T10:11:05;2.60;;;2.40;;
67595;SDS011;54410;48.694;8.934;2023-12-20T10:13:31;3.70;;;3.30;;
67595;SDS011;54410;48.694;8.934;2023-12-20T10:15:57;2.67;;;2.30;;
67595;SDS011;54410;48.694;8.934;2023-12-20T10:18:23;3.20;;;2.60;;
67595;SDS011;54410;48.694;8.934;2023-12-20T10:20:49;3.70;;;2.47;;
67595;SDS011;54410;48.694;8.934;2023-12-20T10:23:15;3.03;;;2.80;;
67595;SDS011;54410;48.694;8.934;2023-12-20T10:25:41;4.50;;;2.43;;
67595;SDS011;54410;48.694;8.934;2023-12-20T10:28:11;2.90;;;2.70;;
67595;SDS011;54410;48.694;8.934;2023-12-20T10:30:37;4.40;;;2.30;;
67595;SDS011;54410;48.694;8.934;2023-12-20T10:33:05;5.73;;;3.27;;
67595;SDS011;54410;48.694;8.934;2023-12-20T10:35:31;6.33;;;2.80;;
67595;SDS011;54410;48.694;8.934;2023-12-20T10:37:57;6.73;;;2.90;;
67595;SDS011;54410;48.694;8.934;2023-12-20T10:40:26;2.67;;;2.47;;
67595;SDS011;54410;48.694;8.934;2023-12-20T10:42:54;5.27;;;2.83;;
67595;SDS011;54410;48.694;8.934;2023-12-20T10:45:22;4.63;;;2.47;;
67595;SDS011;54410;48.694;8.934;2023-12-20T10:47:48;5.10;;;3.63;;
67595;SDS011;54410;48.694;8.934;2023-12-20T10:50:14;6.30;;;2.37;;
67595;SDS011;54410;48.694;8.934;2023-12-20T10:52:40;6.60;;;3.13;;
67595;SDS011;54410;48.694;8.934;2023-12-20T10:55:07;3.37;;;2.70;;
67595;SDS011;54410;48.694;8.934;2023-12-20T10:57:33;4.23;;;2.70;;
67595;SDS011;54410;48.694;8.934;2023-12-20T11:00:02;5.53;;;2.83;;
67595;SDS011;54410;48.694;8.934;2023-12-20T11:02:33;3.00;;;2.77;;
67595;SDS011;54410;48.694;8.934;2023-12-20T11:05:12;2.97;;;2.40;;
67595;SDS011;54410;48.694;8.934;2023-12-20T11:07:45;3.43;;;2.93;;
67595;SDS011;54410;48.694;8.934;2023-12-20T11:10:22;2.50;;;2.30;;
67595;SDS011;54410;48.694;8.934;2023-12-20T11:12:54;2.30;;;2.20;;
67595;SDS011;54410;48.694;8.934;2023-12-20T11:15:42;3.03;;;2.20;;
67595;SDS011;54410;48.694;8.934;2023-12-20T11:18:08;2.80;;;2.33;;
67595;SDS011;54410;48.694;8.934;2023-12-20T11:20:40;3.60;;;2.30;;
67595;SDS011;54410;48.694;8.934;2023-12-20T11:23:10;4.30;;;2.87;;
67595;SDS011;54410;48.694;8.934;2023-12-20T11:25:51;4.40;;;2.50;;
67595;SDS011;54410;48.694;8.934;2023-12-20T11:28:22;2.93;;;2.73;;
67595;SDS011;54410;48.694;8.934;2023-12-20T11:30:50;3.37;;;2.30;;
67595;SDS011;54410;48.694;8.934;2023-12-20T11:33:16;3.90;;;2.70;;
67595;SDS011;54410;48.694;8.934;2023-12-20T11:35:42;2.73;;;2.47;;
67595;SDS011;54410;48.694;8.934;2023-12-20T11:38:09;3.47;;;2.60;;
67595;SDS011;54410;48.694;8.934;2023-12-20T11:40:35;4.23;;;2.40;;
67595;SDS011;54410;48.694;8.934;2023-12-20T11:43:01;5.20;;;2.90;;
67595;SDS011;54410;48.694;8.934;2023-12-20T11:45:27;4.93;;;2.87;;
67595;SDS011;54410;48.694;8.934;2023-12-20T11:47:53;7.73;;;2.83;;
67595;SDS011;54410;48.694;8.934;2023-12-20T11:50:20;4.07;;;3.00;;
67595;SDS011;54410;48.694;8.934;2023-12-20T11:52:46;3.90;;;2.87;;
67595;SDS011;54410;48.694;8.934;2023-12-20T11:55:13;3.27;;;3.07;;
67595;SDS011;54410;48.694;8.934;2023-12-20T11:57:38;4.13;;;3.43;;
67595;SDS011;54410;48.694;8.934;2023-12-20T12:00:04;3.20;;;2.90;;
67595;SDS011;54410;48.694;8.934;2023-12-20T12:02:31;3.23;;;2.93;;
67595;SDS011;54410;48.694;8.934;2023-12-20T12:04:57;4.63;;;3.00;;
67595;SDS011;54410;48.694;8.934;2023-12-20T12:07:23;3.80;;;3.43;;
67595;SDS011;54410;48.694;8.934;2023-12-20T12:09:49;8.13;;;3.60;;
67595;SDS011;54410;48.694;8.934;2023-12-20T12:12:16;4.07;;;3.20;;
67595;SDS011;54410;48.694;8.934;2023-12-20T12:14:43;3.20;;;3.00;;
67595;SDS011;54410;48.694;8.934;2023-12-20T12:17:10;3.90;;;2.90;;
67595;SDS011;54410;48.694;8.934;2023-12-20T12:19:36;5.37;;;2.50;;
67595;SDS011;54410;48.694;8.934;2023-12-20T12:22:06;5.00;;;3.00;;
67595;SDS011;54410;48.694;8.934;2023-12-20T12:24:33;5.00;;;2.50;;
67595;SDS011;54410;48.694;8.934;2023-12-20T12:26:59;3.93;;;2.60;;
67595;SDS011;54410;48.694;8.934;2023-12-20T12:29:24;3.70;;;2.70;;
67595;SDS011;54410;48.694;8.934;2023-12-20T12:31:51;4.40;;;3.33;;
67595;SDS011;54410;48.694;8.934;2023-12-20T12:34:17;2.53;;;2.27;;
67595;SDS011;54410;48.694;8.934;2023-12-20T12:36:43;3.83;;;2.60;;
67595;SDS011;54410;48.694;8.934;2023-12-20T12:39:17;3.67;;;2.60;;
67595;SDS011;54410;48.694;8.934;2023-12-20T12:41:43;2.80;;;2.60;;
67595;SDS011;54410;48.694;8.934;2023-12-20T12:44:10;3.80;;;2.63;;
67595;SDS011;54410;48.694;8.934;2023-12-20T12:46:35;2.77;;;2.17;;
67595;SDS011;54410;48.694;8.934;2023-12-20T12:49:01;2.93;;;2.63;;
67595;SDS011;54410;48.694;8.934;2023-12-20T12:51:27;6.23;;;2.50;;
67595;SDS011;54410;48.694;8.934;2023-12-20T12:53:53;4.23;;;2.40;;
67595;SDS011;54410;48.694;8.934;2023-12-20T12:56:19;3.97;;;2.40;;
67595;SDS011;54410;48.694;8.934;2023-12-20T12:58:46;2.77;;;2.57;;
67595;SDS011;54410;48.694;8.934;2023-12-20T13:01:12;5.77;;;3.37;;
67595;SDS011;54410;48.694;8.934;2023-12-20T13:03:39;2.53;;;2.23;;
67595;SDS011;54410;48.694;8.934;2023-12-20T13:06:05;3.87;;;2.60;;
67595;SDS011;54410;48.694;8.934;2023-12-20T13:08:33;2.33;;;2.20;;
67595;SDS011;54410;48.694;8.934;2023-12-20T13:10:59;5.50;;;2.40;;
67595;SDS011;54410;48.694;8.934;2023-12-20T13:13:26;4.00;;;3.03;;
67595;SDS011;54410;48.694;8.934;2023-12-20T13:15:52;4.50;;;2.47;;
67595;SDS011;54410;48.694;8.934;2023-12-20T13:18:20;4.23;;;2.70;;
67595;SDS011;54410;48.694;8.934;2023-12-20T13:20:46;4.63;;;2.83;;
67595;SDS011;54410;48.694;8.934;2023-12-20T13:23:12;3.10;;;2.90;;
67595;SDS011;54410;48.694;8.934;2023-12-20T13:25:38;3.30;;;3.10;;
67595;SDS011;54410;48.694;8.934;2023-12-20T13:28:04;7.13;;;2.57;;
67595;SDS011;54410;48.694;8.934;2023-12-20T13:30:30;5.43;;;3.03;;
67595;SDS011;54410;48.694;8.934;2023-12-20T13:32:56;4.17;;;2.90;;
67595;SDS011;54410;48.694;8.934;2023-12-20T13:35:21;4.33;;;3.50;;
67595;SDS011;54410;48.694;8.934;2023-12-20T13:37:47;2.30;;;2.10;;
67595;SDS011;54410;48.694;8.934;2023-12-20T13:40:13;4.43;;;2.80;;
67595;SDS011;54410;48.694;8.934;2023-12-20T13:42:40;4.47;;;2.47;;
67595;SDS011;54410;48.694;8.934;2023-12-20T13:45:06;6.57;;;2.80;;
67595;SDS011;54410;48.694;8.934;2023-12-20T13:47:32;4.13;;;2.40;;
67595;SDS011;54410;48.694;8.934;2023-12-20T13:49:58;8.13;;;2.87;;
67595;SDS011;54410;48.694;8.934;2023-12-20T13:52:24;6.00;;;2.43;;
67595;SDS011;54410;48.694;8.934;2023-12-20T13:54:50;4.20;;;2.80;;
67595;SDS011;54410;48.694;8.934;2023-12-20T13:57:16;4.63;;;2.23;;
67595;SDS011;54410;48.694;8.934;2023-12-20T13:59:42;4.23;;;2.60;;
67595;SDS011;54410;48.694;8.934;2023-12-20T14:02:08;5.10;;;2.60;;
67595;SDS011;54410;48.694;8.934;2023-12-20T14:04:34;4.40;;;2.60;;
67595;SDS011;54410;48.694;8.934;2023-12-20T14:07:00;2.60;;;2.40;;
67595;SDS011;54410;48.694;8.934;2023-12-20T14:09:26;2.90;;;2.70;;
67595;SDS011;54410;48.694;8.934;2023-12-20T14:11:52;7.07;;;3.27;;
67595;SDS011;54410;48.694;8.934;2023-12-20T14:14:19;4.23;;;2.77;;
67595;SDS011;54410;48.694;8.934;2023-12-20T14:16:45;4.03;;;2.90;;
67595;SDS011;54410;48.694;8.934;2023-12-20T14:19:11;3.97;;;2.80;;
67595;SDS011;54410;48.694;8.934;2023-12-20T14:21:37;3.10;;;2.80;;
67595;SDS011;54410;48.694;8.934;2023-12-20T14:24:03;3.77;;;2.90;;
67595;SDS011;54410;48.694;8.934;2023-12-20T14:26:30;4.13;;;2.80;;
67595;SDS011;54410;48.694;8.934;2023-12-20T14:28:56;3.23;;;2.90;;
67595;SDS011;54410;48.694;8.934;2023-12-20T14:31:23;2.47;;;2.27;;
67595;SDS011;54410;48.694;8.934;2023-12-20T14:33:50;3.87;;;2.80;;
67595;SDS011;54410;48.694;8.934;2023-12-20T14:36:18;3.77;;;2.90;;
67595;SDS011;54410;48.694;8.934;2023-12-20T14:38:45;4.33;;;2.73;;
67595;SDS011;54410;48.694;8.934;2023-12-20T14:41:12;4.87;;;2.97;;
67595;SDS011;54410;48.694;8.934;2023-12-20T14:43:38;4.73;;;2.93;;